createdAt,value
2022-08-19T00:02:06.027Z,25.86
2022-08-19T00:04:37.964Z,25.85
2022-08-19T00:07:08.289Z,25.80
2022-08-19T00:09:37.281Z,25.77
2022-08-19T00:12:06.106Z,25.71
2022-08-19T00:14:34.761Z,25.66
2022-08-19T00:17:04.623Z,25.67
2022-08-19T00:19:34.861Z,25.69
2022-08-19T00:22:03.816Z,25.69
2022-08-19T00:24:33.391Z,25.69
2022-08-19T00:27:25.748Z,25.69
2022-08-19T00:29:52.963Z,25.65
2022-08-19T00:32:22.460Z,25.58
2022-08-19T00:34:56.307Z,25.52
2022-08-19T00:37:27.461Z,25.43
2022-08-19T00:39:57.163Z,25.39
2022-08-19T00:42:30.015Z,25.40
2022-08-19T00:44:59.095Z,25.41
2022-08-19T00:47:28.112Z,25.42
2022-08-19T00:49:59.661Z,25.42
2022-08-19T00:52:34.863Z,25.36
2022-08-19T00:55:07.870Z,25.33
2022-08-19T00:57:41.397Z,25.28
2022-08-19T01:00:16.504Z,25.23
2022-08-19T01:02:45.493Z,25.21
2022-08-19T01:05:28.933Z,25.19
2022-08-19T01:07:59.663Z,25.07
2022-08-19T01:10:36.702Z,24.97
2022-08-19T01:13:06.503Z,24.92
2022-08-19T01:15:42.209Z,24.89
2022-08-19T01:18:13.988Z,24.88
2022-08-19T01:20:44.194Z,24.88
2022-08-19T01:23:14.459Z,24.86
2022-08-19T01:25:49.031Z,24.79
2022-08-19T01:28:21.833Z,24.74
2022-08-19T01:31:07.898Z,24.70
2022-08-19T01:33:36.839Z,24.71
2022-08-19T01:36:33.994Z,24.65
2022-08-19T01:39:07.221Z,24.63
2022-08-19T01:41:36.652Z,24.63
2022-08-19T01:44:18.159Z,24.64
2022-08-19T01:46:50.006Z,24.56
2022-08-19T01:49:21.457Z,24.54
2022-08-19T01:51:51.023Z,24.54
2022-08-19T01:54:23.047Z,24.55
2022-08-19T01:57:08.477Z,24.53
2022-08-19T01:59:37.811Z,24.50
2022-08-19T02:02:09.819Z,24.46
2022-08-19T02:04:42.208Z,24.42
2022-08-19T02:07:11.598Z,24.40
2022-08-19T02:09:40.446Z,24.37
2022-08-19T02:12:10.197Z,24.30
2022-08-19T02:14:39.087Z,24.19
2022-08-19T02:17:08.328Z,24.10
2022-08-19T02:19:38.999Z,24.01
2022-08-19T02:22:09.955Z,23.92
2022-08-19T02:24:40.377Z,23.87
2022-08-19T02:27:08.971Z,23.79
2022-08-19T02:29:38.415Z,23.77
2022-08-19T02:32:07.082Z,23.82
2022-08-19T02:34:36.467Z,23.90
2022-08-19T02:37:05.652Z,23.94
2022-08-19T02:39:34.175Z,23.92
2022-08-19T02:42:03.692Z,23.88
2022-08-19T02:44:32.955Z,23.84
2022-08-19T02:47:01.672Z,23.83
2022-08-19T02:49:34.722Z,23.81
2022-08-19T02:52:04.528Z,23.86
2022-08-19T02:54:33.522Z,23.90
2022-08-19T02:57:02.074Z,23.88
2022-08-19T02:59:34.421Z,23.88
2022-08-19T03:02:03.188Z,23.89
2022-08-19T03:04:32.101Z,23.90
2022-08-19T03:07:11.148Z,23.91
2022-08-19T03:09:40.528Z,23.83
2022-08-19T03:12:10.748Z,23.76
2022-08-19T03:14:39.266Z,23.71
2022-08-19T03:17:09.345Z,23.68
2022-08-19T03:19:40.505Z,23.68
2022-08-19T03:22:09.298Z,23.69
2022-08-19T03:24:38.592Z,23.70
2022-08-19T03:27:08.405Z,23.69
2022-08-19T03:29:43.113Z,23.66
2022-08-19T03:32:32.181Z,23.61
2022-08-19T03:35:02.454Z,23.58
2022-08-19T03:37:31.295Z,23.55
2022-08-19T03:40:00.434Z,23.55
2022-08-19T03:42:38.780Z,23.56
2022-08-19T03:45:19.273Z,23.55
2022-08-19T03:47:48.628Z,23.52
2022-08-19T03:50:17.591Z,23.52
2022-08-19T03:52:52.528Z,23.52
2022-08-19T03:55:21.273Z,23.54
2022-08-19T03:57:49.915Z,23.55
2022-08-19T04:00:19.269Z,23.55
2022-08-19T04:02:58.627Z,23.56
2022-08-19T04:05:30.739Z,23.59
2022-08-19T04:08:00.538Z,23.69
2022-08-19T04:10:29.755Z,23.81
2022-08-19T04:12:59.005Z,23.88
2022-08-19T04:15:28.916Z,23.93
2022-08-19T04:17:57.490Z,23.98
2022-08-19T04:20:26.588Z,24.03
2022-08-19T04:22:55.802Z,24.08
2022-08-19T04:25:24.371Z,24.12
2022-08-19T04:27:53.149Z,24.20
2022-08-19T04:30:23.882Z,24.25
2022-08-19T04:32:52.535Z,24.29
2022-08-19T04:35:24.792Z,24.36
2022-08-19T04:37:53.937Z,24.43
2022-08-19T04:40:41.668Z,24.48
2022-08-19T04:43:15.891Z,24.58
2022-08-19T04:45:46.433Z,24.68
2022-08-19T04:48:26.933Z,24.79
2022-08-19T04:50:59.232Z,24.86
2022-08-19T04:53:34.647Z,24.93
2022-08-19T04:56:11.292Z,25.00
2022-08-19T04:58:44.874Z,25.07
2022-08-19T05:01:15.908Z,25.14
2022-08-19T05:03:45.243Z,25.18
2022-08-19T05:06:17.115Z,25.19
2022-08-19T05:08:46.379Z,25.16
2022-08-19T05:11:19.542Z,25.21
2022-08-19T05:13:50.595Z,25.33
2022-08-19T05:16:22.673Z,25.47
2022-08-19T05:19:10.493Z,25.60
2022-08-19T05:22:00.272Z,25.70
2022-08-19T05:24:29.770Z,25.76
2022-08-19T05:26:59.931Z,25.84
2022-08-19T05:29:36.229Z,25.97
2022-08-19T05:32:10.742Z,26.08
2022-08-19T05:34:40.029Z,26.15
2022-08-19T05:37:10.070Z,26.25
2022-08-19T05:39:40.189Z,26.45
2022-08-19T05:42:10.238Z,26.69
2022-08-19T05:44:45.177Z,26.90
2022-08-19T05:47:16.208Z,27.15
2022-08-19T05:49:44.949Z,27.66
2022-08-19T05:52:18.960Z,28.53
2022-08-19T05:54:50.924Z,29.50
2022-08-19T05:57:21.069Z,30.46
2022-08-19T05:59:57.916Z,31.40
2022-08-19T06:02:28.941Z,31.92
2022-08-19T06:04:58.056Z,32.38
2022-08-19T06:07:26.729Z,32.92
2022-08-19T06:10:01.014Z,33.40
2022-08-19T06:12:35.593Z,33.87
2022-08-19T06:15:08.947Z,33.99
2022-08-19T06:17:37.605Z,34.47
2022-08-19T06:20:13.521Z,35.08
2022-08-19T06:22:44.541Z,35.64
2022-08-19T06:25:15.824Z,35.93
2022-08-19T06:28:11.412Z,35.97
2022-08-19T06:30:34.743Z,36.08
2022-08-19T06:33:03.939Z,36.49
2022-08-19T06:35:32.631Z,37.15
2022-08-19T06:38:06.605Z,37.53
2022-08-19T06:40:36.919Z,37.63
2022-08-19T06:43:09.433Z,37.81
2022-08-19T06:45:55.095Z,38.19
2022-08-19T06:48:36.606Z,38.38
2022-08-19T06:51:12.564Z,38.40
2022-08-19T06:53:41.236Z,38.65
2022-08-19T06:56:10.741Z,38.84
2022-08-19T06:58:39.695Z,38.65
2022-08-19T07:01:09.857Z,38.80
2022-08-19T07:03:40.547Z,38.84
2022-08-19T07:06:32.524Z,38.83
2022-08-19T07:09:04.640Z,38.89
2022-08-19T07:11:34.225Z,38.91
2022-08-19T07:14:04.848Z,38.83
2022-08-19T07:16:34.037Z,38.48
2022-08-19T07:19:12.992Z,38.08
2022-08-19T07:21:44.827Z,37.68
2022-08-19T07:24:13.729Z,37.46
2022-08-19T07:26:44.153Z,37.15
2022-08-19T07:29:13.784Z,36.79
2022-08-19T07:31:43.419Z,36.52
2022-08-19T07:34:14.681Z,36.25
2022-08-19T07:36:44.710Z,36.18
2022-08-19T07:39:17.944Z,36.04
2022-08-19T07:41:48.373Z,35.96
2022-08-19T07:44:18.089Z,35.87
2022-08-19T07:46:53.158Z,35.79
2022-08-19T07:49:22.941Z,35.64
2022-08-19T07:51:53.198Z,35.46
2022-08-19T07:54:23.375Z,35.10
2022-08-19T07:56:52.416Z,34.87
2022-08-19T07:59:23.032Z,34.72
2022-08-19T08:01:52.491Z,34.90
2022-08-19T08:04:40.128Z,35.28
2022-08-19T08:07:31.437Z,35.66
2022-08-19T08:10:03.349Z,35.95
2022-08-19T08:12:40.253Z,36.03
2022-08-19T08:15:13.217Z,36.14
2022-08-19T08:17:49.357Z,36.25
2022-08-19T08:20:21.811Z,36.13
2022-08-19T08:23:08.829Z,36.12
2022-08-19T08:25:38.752Z,36.24
2022-08-19T08:28:11.450Z,36.27
2022-08-19T08:30:49.257Z,36.44
2022-08-19T08:33:33.159Z,36.45
2022-08-19T08:36:06.881Z,36.16
2022-08-19T08:38:40.823Z,35.44
2022-08-19T08:41:21.337Z,34.72
2022-08-19T08:43:53.323Z,34.52
2022-08-19T08:46:47.553Z,34.56
2022-08-19T08:49:38.652Z,34.53
2022-08-19T08:52:22.950Z,34.35
2022-08-19T08:54:59.100Z,34.03
2022-08-19T08:57:37.696Z,33.81
2022-08-19T09:00:17.689Z,33.64
2022-08-19T09:02:50.507Z,33.39
2022-08-19T09:05:25.825Z,33.10
2022-08-19T09:08:07.094Z,32.79
2022-08-19T09:10:44.639Z,32.59
2022-08-19T09:13:51.484Z,32.41
2022-08-19T09:16:28.234Z,32.11
2022-08-19T09:19:03.468Z,31.84
2022-08-19T09:21:36.082Z,31.66
2022-08-19T09:24:10.808Z,31.60
2022-08-19T09:26:48.470Z,31.60
2022-08-19T09:29:24.453Z,31.66
2022-08-19T09:31:52.969Z,31.76
2022-08-19T09:34:22.120Z,31.91
2022-08-19T09:36:54.937Z,32.06
2022-08-19T09:39:23.657Z,32.31
2022-08-19T09:41:54.297Z,32.69
2022-08-19T09:44:23.123Z,32.81
2022-08-19T09:46:52.585Z,32.76
2022-08-19T09:49:24.313Z,32.89
2022-08-19T09:51:57.709Z,33.33
2022-08-19T09:58:33.262Z,33.57
2022-08-19T10:01:03.473Z,33.32
2022-08-19T10:03:33.787Z,33.16
2022-08-19T10:06:05.309Z,33.14
2022-08-19T10:08:50.290Z,33.16
2022-08-19T10:11:28.162Z,33.18
2022-08-19T10:14:07.169Z,33.20
2022-08-19T10:16:39.778Z,33.21
2022-08-19T10:19:09.158Z,33.14
2022-08-19T10:21:38.859Z,33.07
2022-08-19T10:24:10.093Z,33.17
2022-08-19T10:26:46.563Z,33.32
2022-08-19T10:29:33.060Z,33.59
2022-08-19T10:32:09.784Z,33.95
2022-08-19T10:34:48.069Z,33.99
2022-08-19T10:37:23.835Z,33.85
2022-08-19T10:40:03.991Z,33.80
2022-08-19T10:42:33.226Z,33.82
2022-08-19T10:45:02.373Z,33.85
2022-08-19T10:47:36.018Z,33.87
2022-08-19T10:50:28.800Z,33.80
2022-08-19T10:53:00.097Z,33.81
2022-08-19T10:55:48.242Z,33.85
2022-08-19T10:58:24.057Z,33.86
2022-08-19T11:00:56.284Z,33.66
2022-08-19T11:03:26.720Z,33.41
2022-08-19T11:06:03.051Z,33.32
2022-08-19T11:08:32.970Z,33.24
2022-08-19T11:11:04.441Z,33.06
2022-08-19T11:13:36.920Z,33.01
2022-08-19T11:16:14.587Z,32.84
2022-08-19T11:18:49.922Z,32.75
2022-08-19T11:21:28.829Z,32.71
2022-08-19T11:24:00.014Z,32.78
2022-08-19T11:26:30.752Z,32.85
2022-08-19T11:29:00.424Z,32.91
2022-08-19T11:31:32.297Z,32.87
2022-08-19T11:34:04.464Z,32.88
2022-08-19T11:36:35.340Z,32.99
2022-08-19T11:39:06.782Z,33.11
2022-08-19T11:41:36.759Z,33.27
2022-08-19T11:44:08.998Z,33.36
2022-08-19T11:46:39.379Z,33.51
2022-08-19T11:49:14.070Z,33.63
2022-08-19T11:51:45.946Z,33.73
2022-08-19T11:54:17.573Z,33.79
2022-08-19T11:56:51.071Z,33.81
2022-08-19T11:59:20.124Z,33.86
2022-08-19T12:01:50.246Z,33.91
2022-08-19T12:04:19.518Z,34.02
2022-08-19T12:06:49.494Z,34.16
2022-08-19T12:09:19.077Z,34.19
2022-08-19T12:11:49.906Z,34.17
2022-08-19T12:14:18.995Z,34.23
2022-08-19T12:16:49.061Z,34.25
2022-08-19T12:19:22.283Z,34.27
2022-08-19T12:21:54.536Z,34.24
2022-08-19T12:24:25.712Z,34.16
2022-08-19T12:26:56.786Z,34.15
2022-08-19T12:29:32.156Z,34.07
2022-08-19T12:32:04.043Z,34.05
2022-08-19T12:34:34.311Z,34.06
2022-08-19T12:37:05.966Z,34.15
2022-08-19T12:39:43.103Z,34.19
2022-08-19T12:42:14.592Z,34.20
2022-08-19T12:44:44.936Z,34.07
2022-08-19T12:47:19.628Z,33.89
2022-08-19T12:49:54.622Z,33.87
2022-08-19T12:52:27.208Z,33.82
2022-08-19T12:54:58.180Z,33.78
2022-08-19T12:57:37.139Z,33.77
2022-08-19T13:00:32.783Z,33.69
2022-08-19T13:03:04.462Z,33.66
2022-08-19T13:05:35.820Z,33.65
2022-08-19T13:08:04.999Z,33.61
2022-08-19T13:10:36.903Z,33.50
2022-08-19T13:13:08.717Z,33.47
2022-08-19T13:15:43.472Z,33.42
2022-08-19T13:18:13.896Z,33.35
2022-08-19T13:20:43.269Z,33.22
2022-08-19T13:23:21.803Z,33.06
2022-08-19T13:26:06.561Z,32.92
2022-08-19T13:28:55.316Z,32.72
2022-08-19T13:31:44.579Z,32.55
2022-08-19T13:34:14.802Z,32.35
2022-08-19T13:36:44.003Z,32.21
2022-08-19T13:39:13.757Z,32.12
2022-08-19T13:41:50.123Z,32.04
2022-08-19T13:44:19.679Z,31.98
2022-08-19T13:46:50.000Z,31.89
2022-08-19T13:49:23.073Z,31.81
2022-08-19T13:51:51.923Z,31.79
2022-08-19T13:54:21.764Z,31.76
2022-08-19T13:56:50.332Z,31.71
2022-08-19T13:59:19.219Z,31.56
2022-08-19T14:01:47.701Z,31.41
2022-08-19T14:04:16.463Z,31.32
2022-08-19T14:06:45.450Z,31.22
2022-08-19T14:09:14.040Z,31.14
2022-08-19T14:11:42.670Z,31.02
2022-08-19T14:14:16.238Z,30.91
2022-08-19T14:16:45.179Z,30.79
2022-08-19T14:19:14.094Z,30.70
2022-08-19T14:21:42.947Z,30.63
2022-08-19T14:24:11.595Z,30.58
2022-08-19T14:26:40.647Z,30.51
2022-08-19T14:29:09.211Z,30.41
2022-08-19T14:31:37.814Z,30.31
2022-08-19T14:34:06.637Z,30.26
2022-08-19T14:36:39.135Z,30.16
2022-08-19T14:39:11.059Z,30.17
2022-08-19T14:41:43.167Z,30.24
2022-08-19T14:44:16.229Z,30.30
2022-08-19T14:46:48.567Z,30.25
2022-08-19T14:49:20.265Z,30.18
2022-08-19T14:51:49.057Z,30.07
2022-08-19T14:54:19.114Z,29.85
2022-08-19T14:56:47.970Z,29.75
2022-08-19T14:59:17.333Z,29.69
2022-08-19T15:01:46.290Z,29.67
2022-08-19T15:04:15.345Z,29.55
2022-08-19T15:06:44.519Z,29.47
2022-08-19T15:09:13.172Z,29.40
2022-08-19T15:11:42.213Z,29.32
2022-08-19T15:14:11.445Z,29.26
2022-08-19T15:16:41.892Z,29.22
2022-08-19T15:19:11.439Z,29.19
2022-08-19T15:21:40.253Z,29.23
2022-08-19T15:24:10.443Z,29.18
2022-08-19T15:26:40.017Z,29.15
2022-08-19T15:29:09.609Z,29.11
2022-08-19T15:31:38.919Z,29.10
2022-08-19T15:34:08.660Z,29.02
2022-08-19T15:36:38.571Z,28.95
2022-08-19T15:39:12.031Z,28.92
2022-08-19T15:41:43.553Z,28.97
2022-08-19T15:44:19.322Z,29.01
2022-08-19T15:46:49.459Z,29.02
2022-08-19T15:49:19.862Z,29.06
2022-08-19T15:51:52.151Z,29.07
2022-08-19T15:54:22.291Z,29.04
2022-08-19T15:57:10.887Z,29.09
2022-08-19T16:00:01.575Z,29.12
2022-08-19T16:02:54.357Z,29.11
2022-08-19T16:05:48.202Z,29.16
2022-08-19T16:08:18.137Z,29.18
2022-08-19T16:10:47.303Z,29.19
2022-08-19T16:13:16.273Z,29.20
2022-08-19T16:15:45.426Z,29.18
2022-08-19T16:18:14.231Z,29.14
2022-08-19T16:20:45.156Z,29.13
2022-08-19T16:23:14.498Z,29.11
2022-08-19T16:25:43.855Z,29.02
2022-08-19T16:28:13.188Z,28.96
2022-08-19T16:30:48.394Z,28.87
2022-08-19T16:33:22.860Z,28.78
2022-08-19T16:36:00.344Z,28.69
2022-08-19T16:38:38.231Z,28.58
2022-08-19T16:41:08.300Z,28.51
2022-08-19T16:43:39.625Z,28.45
2022-08-19T16:46:09.870Z,28.37
2022-08-19T16:48:43.966Z,28.29
2022-08-19T16:51:14.313Z,28.23
2022-08-19T16:53:45.826Z,28.24
2022-08-19T16:56:15.878Z,28.29
2022-08-19T16:58:44.710Z,28.32
2022-08-19T17:01:14.682Z,28.27
2022-08-19T17:04:00.013Z,28.22
2022-08-19T17:06:51.672Z,28.12
2022-08-19T17:09:44.322Z,28.05
2022-08-19T17:12:38.020Z,28.05
2022-08-19T17:15:32.836Z,28.04
2022-08-19T17:18:31.660Z,28.05
2022-08-19T17:21:35.046Z,28.03
2022-08-19T17:24:28.333Z,27.96
2022-08-19T17:27:26.807Z,27.85
2022-08-19T17:30:25.166Z,27.78
2022-08-19T17:33:26.700Z,27.76
2022-08-19T17:36:13.556Z,27.68
2022-08-19T17:42:05.206Z,27.60
2022-08-19T17:44:36.983Z,27.64
2022-08-19T17:47:06.526Z,27.56
2022-08-19T17:49:37.785Z,27.51
2022-08-19T17:52:10.049Z,27.49
2022-08-19T17:54:40.954Z,27.47
2022-08-19T17:57:10.993Z,27.48
2022-08-19T17:59:40.008Z,27.39
2022-08-19T18:02:10.804Z,27.28
2022-08-19T18:04:43.396Z,27.22
2022-08-19T18:07:14.404Z,27.11
2022-08-19T18:09:49.453Z,27.09
2022-08-19T18:12:25.098Z,27.06
2022-08-19T18:14:54.304Z,26.97
2022-08-19T18:17:23.657Z,26.90
2022-08-19T18:19:53.256Z,26.90
2022-08-19T18:22:29.068Z,26.87
2022-08-19T18:24:59.095Z,26.81
2022-08-19T18:27:28.084Z,26.76
2022-08-19T18:30:00.037Z,26.77
2022-08-19T18:32:34.916Z,26.82
2022-08-19T18:35:10.308Z,26.82
2022-08-19T18:37:40.540Z,26.80
2022-08-19T18:40:32.494Z,26.84
2022-08-19T18:43:11.613Z,26.87
2022-08-19T18:46:02.580Z,26.89
2022-08-19T18:48:50.233Z,26.91
2022-08-19T18:51:19.556Z,26.93
2022-08-19T18:53:49.058Z,26.97
2022-08-19T18:56:21.155Z,27.00
2022-08-19T18:58:51.202Z,27.01
2022-08-19T19:01:21.847Z,26.97
2022-08-19T19:03:55.255Z,26.93
2022-08-19T19:06:35.130Z,26.95
2022-08-19T19:09:04.956Z,26.97
2022-08-19T19:11:38.217Z,26.95
2022-08-19T19:14:23.016Z,26.88
2022-08-19T19:17:04.768Z,26.78
2022-08-19T19:19:34.768Z,26.73
2022-08-19T19:22:05.416Z,26.73
2022-08-19T19:24:34.615Z,26.73
2022-08-19T19:27:07.647Z,26.70
2022-08-19T19:29:37.624Z,26.64
2022-08-19T19:32:08.027Z,26.60
2022-08-19T19:34:40.651Z,26.57
2022-08-19T19:37:10.144Z,26.54
2022-08-19T19:39:46.173Z,26.50
2022-08-19T19:42:20.336Z,26.44
2022-08-19T19:44:55.223Z,26.41
2022-08-19T19:47:25.048Z,26.42
2022-08-19T19:50:14.807Z,26.46
2022-08-19T19:52:46.854Z,26.49
2022-08-19T19:55:20.456Z,26.51
2022-08-19T19:57:50.319Z,26.49
2022-08-19T20:00:20.737Z,26.49
2022-08-19T20:02:51.295Z,26.48
2022-08-19T20:05:21.762Z,26.45
2022-08-19T20:08:11.480Z,26.42
2022-08-19T20:10:41.984Z,26.37
2022-08-19T20:13:15.911Z,26.34
2022-08-19T20:15:46.250Z,26.28
2022-08-19T20:18:16.235Z,26.24
2022-08-19T20:20:51.332Z,26.17
2022-08-19T20:23:22.960Z,26.11
2022-08-19T20:25:52.720Z,26.10
2022-08-19T20:28:24.007Z,26.08
2022-08-19T20:30:55.285Z,26.02
2022-08-19T20:33:24.472Z,25.95
2022-08-19T20:35:53.670Z,25.92
2022-08-19T20:38:24.689Z,25.93
2022-08-19T20:40:53.379Z,25.92
2022-08-19T20:43:23.820Z,25.89
2022-08-19T20:45:53.412Z,25.82
2022-08-19T20:48:22.353Z,25.71
2022-08-19T20:50:51.994Z,25.60
2022-08-19T20:53:23.463Z,25.55
2022-08-19T20:55:52.352Z,25.54
2022-08-19T20:58:24.759Z,25.54
2022-08-19T21:00:58.592Z,25.55
2022-08-19T21:03:30.686Z,25.59
2022-08-19T21:05:59.992Z,25.56
2022-08-19T21:08:29.101Z,25.51
2022-08-19T21:10:59.324Z,25.47
2022-08-19T21:13:28.162Z,25.40
2022-08-19T21:15:57.732Z,25.36
2022-08-19T21:18:27.931Z,25.36
2022-08-19T21:20:56.727Z,25.34
2022-08-19T21:23:27.880Z,25.34
2022-08-19T21:25:58.929Z,25.27
2022-08-19T21:28:35.027Z,25.15
2022-08-19T21:31:07.427Z,25.06
2022-08-19T21:33:37.277Z,25.02
2022-08-19T21:36:06.837Z,24.94
2022-08-19T21:38:35.797Z,24.87
2022-08-19T21:41:06.573Z,24.84
2022-08-19T21:43:38.163Z,24.83
2022-08-19T21:46:07.856Z,24.78
2022-08-19T21:48:37.520Z,24.69
2022-08-19T21:51:06.492Z,24.60
2022-08-19T21:53:36.059Z,24.53
2022-08-19T21:56:06.769Z,24.44
2022-08-19T21:58:39.133Z,24.41
2022-08-19T22:01:08.376Z,24.35
2022-08-19T22:03:39.238Z,24.29
2022-08-19T22:06:08.882Z,24.24
2022-08-19T22:08:38.163Z,24.22
2022-08-19T22:11:06.703Z,24.22
2022-08-19T22:13:40.394Z,24.17
2022-08-19T22:16:10.738Z,24.10
2022-08-19T22:18:39.512Z,24.05
2022-08-19T22:21:11.889Z,24.07
2022-08-19T22:23:44.933Z,24.09
2022-08-19T22:26:19.246Z,24.06
2022-08-19T22:28:48.725Z,24.08
2022-08-19T22:31:19.161Z,24.16
2022-08-19T22:33:48.512Z,24.19
2022-08-19T22:36:18.185Z,24.25
2022-08-19T22:38:48.278Z,24.25
2022-08-19T22:41:17.061Z,24.24
2022-08-19T22:43:47.069Z,24.21
2022-08-19T22:46:17.615Z,24.25
2022-08-19T22:48:48.357Z,24.20
2022-08-19T22:51:49.124Z,24.05
2022-08-19T22:54:18.628Z,23.97
2022-08-19T22:56:48.520Z,23.99
2022-08-19T22:59:17.146Z,24.03
2022-08-19T23:01:47.115Z,24.09
2022-08-19T23:04:15.804Z,24.11
2022-08-19T23:06:47.880Z,24.11
2022-08-19T23:09:17.359Z,24.12
2022-08-19T23:11:48.206Z,24.13
2022-08-19T23:14:19.729Z,24.13
2022-08-19T23:16:51.371Z,24.13
2022-08-19T23:19:21.541Z,24.14
2022-08-19T23:21:52.969Z,24.14
2022-08-19T23:24:21.777Z,24.12
2022-08-19T23:27:09.993Z,24.03
2022-08-19T23:29:58.364Z,23.98
2022-08-19T23:32:27.474Z,23.97
2022-08-19T23:34:57.462Z,23.96
2022-08-19T23:37:29.355Z,23.96
2022-08-19T23:39:57.996Z,23.97
2022-08-19T23:42:26.703Z,23.96
2022-08-19T23:45:05.777Z,23.95
2022-08-19T23:47:36.012Z,23.89
2022-08-19T23:50:11.226Z,23.81
2022-08-19T23:52:47.779Z,23.75
2022-08-19T23:55:18.585Z,23.72
2022-08-19T23:57:48.383Z,23.67
